KHON/HON METAR and TAF weather

Enter ICAO airport designator
Station Type Date Time Source
KHON METAR 2021/09/20 05:55 UTC NOAA

KHON 200555Z AUTO 17011KT 10SM CLR 23/19 A2956 RMK AO2 SLP999 T02330189 10294 20233 403110211 55006


Station Type Date Time Source
KHON Decoded METAR 2021/09/20 05:55 UTC NOAA

HURON REGIONAL AIRPORT, SD, United States (KHON) 44-23N 098-14W 390M
Sep 20, 2021 - 01:55 AM EDT / 2021.09.20 0555 UTC
Wind: from the S (170 degrees) at 13 MPH (11 KT):0
Visibility: 10 mile(s):0
Sky conditions: clear
Temperature: 73.9 F (23.3 C)
Dew Point: 66.0 F (18.9 C)
Relative Humidity: 76%
Pressure (altimeter): 29.56 in. Hg (1001 hPa)
Pressure tendency: 0.02 inches (0.6 hPa) lower than three hours ago
ob: KHON 200555Z AUTO 17011KT 10SM CLR 23/19 A2956 RMK AO2 SLP999 T02330189 10294 20233 403110211 55006
cycle: 6

Station Type Date Time Source
KHON TAF 2021/09/20 06:06 UTC NOAA

TAF KHON 200604Z 2006/2106 17012G22KT P6SM SCT250
FM200800 29013G20KT P6SM BKN100
FM201100 33020G33KT 6SM -SHRA BR OVC050
FM201400 33015G24KT P6SM BKN020
FM201700 33017G28KT P6SM BKN025
FM202200 35014G21KT P6SM FEW180
FM210100 31008KT P6SM SKC

Example: see airport list